Time;durP1;ratioP1;P1;durP2;ratioP2;P2;SDS_P1;SDS_P2;PMS_P1;PMS_P2;Temp;Humidity;BMP_temperature;BMP_pressure;BME280_temperature;BME280_humidity;BME280_pressure;Samples;Min_cycle;Max_cycle;Signal;HPM_P1;HPM_P2
2023/11/22 00:02:17;;;;;;;;;;;;;;;5.63;100.00;100158.38;6242808;23;19990;-82
2023/11/22 00:04:43;;;;;;;;;;;;;;;5.59;100.00;100172.50;6245218;22;20276;-83
2023/11/22 00:07:08;;;;;;;;;;;;;;;5.57;100.00;100175.13;6246098;23;19947;-81
2023/11/22 00:09:33;;;;;;;;;;;;;;;5.62;100.00;100177.69;6245657;23;19946;-82
2023/11/22 00:12:00;;;;;;;;;;;;;;;5.57;100.00;100177.78;6245793;23;19922;-83
2023/11/22 00:14:25;;;;;;;;;;;;;;;5.52;100.00;100179.63;6246151;23;19919;-83
2023/11/22 00:16:51;;;;;;;;;;;;;;;5.49;100.00;100184.91;6244376;22;19911;-87
2023/11/22 00:19:18;;;;;;;;;;;;;;;5.51;100.00;100183.13;6244401;23;19912;-83
2023/11/22 00:21:43;;;;;;;;;;;;;;;5.44;100.00;100187.63;6243944;23;19911;-86
2023/11/22 00:24:08;;;;;;;;;;;;;;;5.43;100.00;100180.59;6243709;23;19915;-83
2023/11/22 00:26:34;;;;;;;;;;;;;;;5.42;100.00;100194.63;6243755;23;19911;-86
2023/11/22 00:28:59;;;;;;;;;;;;;;;5.44;100.00;100199.88;6244586;23;19911;-86
2023/11/22 00:31:25;;;;;;;;;;;;;;;5.51;100.00;100209.41;6235349;23;19915;-83
2023/11/22 00:33:50;;;;;;;;;;;;;;;6.05;100.00;100216.44;6246040;23;20323;-84
2023/11/22 00:36:23;;;;;;;;;;;;;;;6.30;100.00;100226.53;6244847;23;19923;-85
2023/11/22 00:38:48;;;;;;;;;;;;;;;6.51;100.00;100230.50;6244360;23;19912;-83
2023/11/22 00:41:16;;;;;;;;;;;;;;;6.71;100.00;100236.25;6242557;23;20308;-91
2023/11/22 06:13:50;;;;;;;;;;;;;;;5.68;100.00;100615.81;6240470;23;19945;-89
2023/11/22 06:16:15;;;;;;;;;;;;;;;5.70;100.00;100609.66;6245590;23;19947;-86
2023/11/22 06:18:41;;;;;;;;;;;;;;;5.68;100.00;100613.19;6245323;23;19935;-86
2023/11/22 06:21:07;;;;;;;;;;;;;;;5.58;100.00;100621.16;6245198;23;19912;-86
2023/11/22 06:23:32;;;;;;;;;;;;;;;5.60;100.00;100623.78;6245071;23;20327;-87
2023/11/22 06:25:58;;;;;;;;;;;;;;;5.55;100.00;100621.22;6243236;23;19964;-86
2023/11/22 06:28:23;;;;;;;;;;;;;;;5.51;100.00;100622.13;6245347;23;19915;-87
2023/11/22 06:30:48;;;;;;;;;;;;;;;5.52;100.00;100626.50;6218435;23;19908;-86
2023/11/22 06:33:14;;;;;;;;;;;;;;;5.34;100.00;100638.00;6245137;23;20067;-86
2023/11/22 06:35:40;;;;;;;;;;;;;;;5.35;100.00;100642.41;6245083;23;19915;-88
2023/11/22 06:38:05;;;;;;;;;;;;;;;5.39;100.00;100646.75;6218116;23;19912;-87
2023/11/22 06:40:33;;;;;;;;;;;;;;;5.31;100.00;100642.44;6216913;23;19994;-88
2023/11/22 06:42:58;;;;;;;;;;;;;;;5.28;100.00;100657.34;6218012;23;19990;-90
2023/11/22 06:45:24;;;;;;;;;;;;;;;5.22;100.00;100662.63;6244800;23;19951;-93
2023/11/22 06:47:50;;;;;;;;;;;;;;;5.18;100.00;100658.28;6218255;23;20343;-88
2023/11/22 06:50:15;;;;;;;;;;;;;;;5.18;100.00;100660.91;6217960;23;19908;-87
2023/11/22 06:52:43;;;;;;;;;;;;;;;5.12;100.00;100660.94;6246198;23;19918;-87
2023/11/22 06:55:09;;;;;;;;;;;;;;;5.11;100.00;100661.84;6219904;23;20238;-87
2023/11/22 06:57:37;;;;;;;;;;;;;;;5.38;100.00;100659.91;6218331;23;19946;-88
2023/11/22 07:00:05;;;;;;;;;;;;;;;5.89;100.00;100670.84;6247108;23;19918;-88
2023/11/22 07:02:35;;;;;;;;;;;;;;;6.20;100.00;100670.56;6219854;23;19961;-87
2023/11/22 07:05:00;;;;;;;;;;;;;;;6.38;100.00;100672.13;6220257;23;19964;-87
2023/11/22 07:07:25;;;;;;;;;;;;;;;6.51;100.00;100673.75;6246791;23;19950;-88
2023/11/22 07:10:11;;;;;;;;;;;;;;;6.67;100.00;100679.69;6220332;23;20231;-91
2023/11/22 07:12:36;;;;;;;;;;;;;;;6.81;100.00;100686.53;6245053;23;19954;-89
2023/11/22 07:15:12;;;;;;;;;;;;;;;6.89;100.00;100688.19;6219924;23;19916;-90
2023/11/22 07:17:47;;;;;;;;;;;;;;;6.99;100.00;100694.19;6219724;23;19915;-90
2023/11/22 07:20:16;;;;;;;;;;;;;;;7.07;100.00;100707.28;6220105;23;19965;-86
2023/11/22 07:22:43;;;;;;;;;;;;;;;7.14;100.00;100714.19;6246808;23;19939;-88
2023/11/22 07:28:24;;;;;;;;;;;;;;;7.31;100.00;100706.06;6211668;23;19911;-89
2023/11/22 07:30:58;;;;;;;;;;;;;;;7.35;100.00;100709.50;6246764;23;19919;-92
2023/11/22 07:33:26;;;;;;;;;;;;;;;7.42;100.00;100717.31;6246707;23;19919;-90
2023/11/22 07:35:51;;;;;;;;;;;;;;;7.45;100.00;100714.63;6246993;23;19991;-89
2023/11/22 07:38:17;;;;;;;;;;;;;;;7.51;100.00;100720.69;6246866;23;19969;-91
2023/11/22 07:40:44;;;;;;;;;;;;;;;7.56;100.00;100719.75;6218278;23;20391;-89
2023/11/22 07:43:10;;;;;;;;;;;;;;;7.60;100.00;100715.28;6246395;23;19943;-88
2023/11/22 07:45:47;;;;;;;;;;;;;;;;;;;;;
2023/11/22 07:48:40;;;;;;;;;;;;;;;7.71;100.00;100702.78;6246956;23;19994;-91
2023/11/22 07:51:28;;;;;;;;;;;;;;;;;;;;;
2023/11/22 07:53:56;;;;;;;;;;;;;;;7.80;100.00;100697.38;6246461;23;19987;-88
2023/11/22 07:56:23;;;;;;;;;;;;;;;7.86;100.00;100693.72;6218372;23;19916;-88
2023/11/22 07:58:50;;;;;;;;;;;;;;;7.88;100.00;100697.25;6219598;23;19918;-90
2023/11/22 08:01:15;;;;;;;;;;;;;;;7.94;100.00;100698.88;6246498;23;19911;-89
2023/11/22 08:03:45;;;;;;;;;;;;;;;7.98;100.00;100693.53;6219690;23;19912;-86
2023/11/22 08:06:10;;;;;;;;;;;;;;;8.01;100.00;100700.53;6246330;23;19915;-85
2023/11/22 08:08:39;;;;;;;;;;;;;;;8.06;100.00;100695.13;6246375;23;19918;-86
2023/11/22 08:11:04;;;;;;;;;;;;;;;8.08;100.00;100701.28;6218246;23;20212;-86
2023/11/22 08:13:30;;;;;;;;;;;;;;;8.13;100.00;100710.84;6246164;23;19931;-86
2023/11/22 08:15:55;;;;;;;;;;;;;;;8.17;100.00;100706.41;6246222;23;19943;-85
2023/11/22 08:57:08;;;;;;;;;;;;;;;8.53;100.00;100756.81;6239752;22;20146;-89
2023/11/22 08:59:37;;;;;;;;;;;;;;;8.54;100.00;100748.00;6276623;22;20281;-86
2023/11/22 09:02:07;;;;;;;;;;;;;;;8.56;100.00;100745.31;6276528;22;20387;-92
2023/11/22 09:04:33;;;;;;;;;;;;;;;8.56;100.00;100734.75;6276414;22;20425;-87
2023/11/22 09:06:58;;;;;;;;;;;;;;;8.58;100.00;100727.66;6249154;22;19915;-87
2023/11/22 09:09:30;;;;;;;;;;;;;;;8.60;100.00;100725.84;6276153;22;19915;-85
2023/11/22 09:11:57;;;;;;;;;;;;;;;8.60;100.00;100712.66;6274780;22;19911;-82
2023/11/22 09:14:24;;;;;;;;;;;;;;;8.60;100.00;100712.66;6275830;22;19922;-86
2023/11/22 09:16:54;;;;;;;;;;;;;;;8.59;100.00;100703.84;6249210;22;19911;-86
2023/11/22 09:19:24;;;;;;;;;;;;;;;8.61;100.00;100703.84;6276103;22;19943;-84
2023/11/22 09:21:50;;;;;;;;;;;;;;;8.61;100.00;100702.03;6248919;22;19911;-87
2023/11/22 09:24:15;;;;;;;;;;;;;;;8.65;100.00;100702.88;6276534;22;19915;-86
2023/11/22 09:26:42;;;;;;;;;;;;;;;8.67;100.00;100701.06;6274241;22;19918;-86
2023/11/22 09:29:07;;;;;;;;;;;;;;;8.67;100.00;100703.72;6249110;22;19911;-85
2023/11/22 09:31:32;;;;;;;;;;;;;;;8.68;100.00;100706.31;6276217;22;19907;-85
2023/11/22 09:33:58;;;;;;;;;;;;;;;8.68;100.00;100710.72;6276105;22;19990;-85
2023/11/22 09:36:27;;;;;;;;;;;;;;;8.69;100.00;100709.81;6248912;22;19915;-85
2023/11/22 09:38:52;;;;;;;;;;;;;;;8.72;100.00;100718.56;6276067;22;20277;-85
2023/11/22 09:41:18;;;;;;;;;;;;;;;8.73;100.00;100722.09;6274534;22;20040;-85
2023/11/22 09:43:44;;;;;;;;;;;;;;;8.76;100.00;100743.16;6249185;22;20299;-86
2023/11/22 09:46:11;;;;;;;;;;;;;;;7.58;100.00;100740.81;6275909;22;19916;-86
2023/11/22 09:48:38;;;;;;;;;;;;;;;6.90;100.00;100747.88;6276012;22;19915;-85
2023/11/22 09:51:09;;;;;;;;;;;;;;;6.60;100.00;100767.53;6276090;22;19907;-84
2023/11/22 09:53:40;;;;;;;;;;;;;;;6.34;100.00;100779.22;6276142;22;20223;-83
2023/11/22 09:56:07;;;;;;;;;;;;;;;6.15;100.00;100769.75;6274390;22;20398;-88
2023/11/22 09:58:33;;;;;;;;;;;;;;;6.10;100.00;100763.66;6248839;22;20021;-85
2023/11/22 10:01:01;;;;;;;;;;;;;;;5.97;100.00;100769.03;6248835;22;19951;-85
2023/11/22 10:03:28;;;;;;;;;;;;;;;5.87;100.00;100772.59;6248499;22;19922;-85
2023/11/22 10:05:54;;;;;;;;;;;;;;;5.75;100.00;100776.19;6275729;22;19923;-86
2023/11/22 10:08:22;;;;;;;;;;;;;;;5.64;100.00;100783.28;6276133;22;19915;-85
2023/11/22 10:10:51;;;;;;;;;;;;;;;5.61;100.00;100788.53;6248724;22;19912;-85
2023/11/22 10:13:16;;;;;;;;;;;;;;;5.51;100.00;100782.47;6248128;22;19950;-86
2023/11/22 10:15:41;;;;;;;;;;;;;;;5.47;100.00;100775.47;6275677;22;19920;-85
2023/11/22 10:18:07;;;;;;;;;;;;;;;5.42;100.00;100772.00;6275679;22;19918;-85
2023/11/22 10:20:39;;;;;;;;;;;;;;;5.37;100.00;100763.28;6275590;22;19911;-87
2023/11/22 10:23:14;;;;;;;;;;;;;;;5.31;100.00;100761.56;6275771;22;19912;-85
2023/11/22 10:25:52;;;;;;;;;;;;;;;5.21;100.00;100759.88;6275502;22;19934;-84
2023/11/22 10:28:18;;;;;;;;;;;;;;;5.14;100.00;100763.41;6275686;22;19911;-85
2023/11/22 10:30:44;;;;;;;;;;;;;;;5.04;100.00;100767.81;6275657;22;19907;-86
2023/11/22 10:33:15;;;;;;;;;;;;;;;5.07;100.00;100771.34;6275926;22;19969;-83
2023/11/22 10:35:44;;;;;;;;;;;;;;;4.99;100.00;100772.22;6249540;22;19911;-83
2023/11/22 10:38:09;;;;;;;;;;;;;;;5.01;100.00;100765.22;6276119;22;19951;-86
2023/11/22 10:40:38;;;;;;;;;;;;;;;5.03;100.00;100763.47;6275587;22;19908;-83
2023/11/22 10:43:04;;;;;;;;;;;;;;;4.83;100.00;100756.53;6274124;22;20348;-82
2023/11/22 10:45:33;;;;;;;;;;;;;;;4.82;100.00;100752.16;6275724;22;19989;-82
2023/11/22 10:48:00;;;;;;;;;;;;;;;4.76;100.00;100753.94;6248903;22;19919;-87
2023/11/22 10:50:28;;;;;;;;;;;;;;;4.90;100.00;100746.91;6275604;22;19915;-82
2023/11/22 10:52:57;;;;;;;;;;;;;;;5.62;100.00;100762.25;6275781;22;19986;-85
2023/11/22 10:55:26;;;;;;;;;;;;;;;6.02;100.00;100774.25;6248601;22;19950;-85
2023/11/22 10:57:55;;;;;;;;;;;;;;;6.30;100.00;100772.25;6273924;22;20388;-85
2023/11/22 11:00:22;;;;;;;;;;;;;;;6.47;100.00;100773.84;6248420;22;19918;-86
2023/11/22 11:02:51;;;;;;;;;;;;;;;6.65;100.00;100773.66;6275627;22;19918;-87
2023/11/22 11:05:18;;;;;;;;;;;;;;;6.81;100.00;100781.38;6275736;22;19918;-85
2023/11/22 11:08:06;;;;;;;;;;;;;;;6.93;100.00;100778.59;6275579;22;20421;-84
2023/11/22 11:10:31;;;;;;;;;;;;;;;7.05;100.00;100781.09;6275076;22;20377;-86
2023/11/22 11:12:57;;;;;;;;;;;;;;;7.19;100.00;100772.13;6274586;22;19911;-84
2023/11/22 11:15:23;;;;;;;;;;;;;;;7.30;100.00;100764.94;6275464;22;19915;-88
2023/11/22 11:17:50;;;;;;;;;;;;;;;7.38;100.00;100764.84;6275417;22;19942;-87
2023/11/22 11:20:19;;;;;;;;;;;;;;;7.46;100.00;100768.22;6275475;22;19911;-86
2023/11/22 11:22:46;;;;;;;;;;;;;;;7.55;100.00;100773.38;6275373;22;19915;-87
2023/11/22 11:25:14;;;;;;;;;;;;;;;7.61;100.00;100775.03;6275732;22;20232;-86
2023/11/22 11:27:41;;;;;;;;;;;;;;;7.65;100.00;100763.56;6273660;22;20338;-86
2023/11/22 11:30:28;;;;;;;;;;;;;;;7.71;100.00;100767.88;6248368;22;19919;-86
2023/11/22 11:32:53;;;;;;;;;;;;;;;7.76;100.00;100772.16;6248246;22;19919;-86
2023/11/22 11:35:18;;;;;;;;;;;;;;;7.80;100.00;100770.34;6248544;22;19911;-86
2023/11/22 11:37:47;;;;;;;;;;;;;;;7.84;100.00;100766.78;6276149;22;19915;-86
2023/11/22 11:40:32;;;;;;;;;;;;;;;7.89;100.00;100762.28;6277615;22;19943;-86
2023/11/22 11:42:58;;;;;;;;;;;;;;;7.91;100.00;100768.41;6274765;22;19915;-86
2023/11/22 11:45:31;;;;;;;;;;;;;;;7.94;100.00;100771.00;6277075;22;19912;-88
2023/11/22 11:47:57;;;;;;;;;;;;;;;8.00;100.00;100773.53;6277401;22;20010;-85
2023/11/22 11:50:22;;;;;;;;;;;;;;;8.03;100.00;100770.00;6276962;22;19939;-86
2023/11/22 11:52:47;;;;;;;;;;;;;;;8.05;100.00;100765.53;6277833;22;19911;-86
2023/11/22 11:55:13;;;;;;;;;;;;;;;8.05;100.00;100759.41;6277050;22;19941;-85
2023/11/22 11:57:38;;;;;;;;;;;;;;;8.12;100.00;100772.47;6239306;23;19920;-86
2023/11/22 12:00:05;;;;;;;;;;;;;;;8.10;100.00;100766.34;6246478;23;19912;-87
2023/11/22 12:02:30;;;;;;;;;;;;;;;8.16;100.00;100779.44;6246120;23;20042;-84
2023/11/22 12:04:55;;;;;;;;;;;;;;;8.18;100.00;100775.03;6246425;23;19943;-86
2023/11/22 12:07:21;;;;;;;;;;;;;;;8.22;100.00;100767.91;6219382;23;20331;-85
2023/11/22 12:09:47;;;;;;;;;;;;;;;8.25;100.00;100782.81;6246781;23;20213;-87
2023/11/22 12:12:12;;;;;;;;;;;;;;;8.29;100.00;100776.59;6244862;23;19922;-85
2023/11/22 12:14:39;;;;;;;;;;;;;;;8.29;100.00;100766.88;6246570;23;19998;-86
2023/11/22 12:17:05;;;;;;;;;;;;;;;8.33;100.00;100770.38;6246553;23;19912;-88
2023/11/22 12:19:31;;;;;;;;;;;;;;;8.34;100.00;100770.34;6246215;23;19915;-88
2023/11/22 12:21:56;;;;;;;;;;;;;;;8.35;100.00;100763.28;6246615;23;20352;-86
2023/11/22 12:24:22;;;;;;;;;;;;;;;8.37;100.00;100759.69;6246154;23;19915;-86
2023/11/22 12:26:49;;;;;;;;;;;;;;;8.41;100.00;100752.59;6217655;23;19957;-86
2023/11/22 12:29:15;;;;;;;;;;;;;;;8.42;100.00;100749.03;6246313;23;19911;-88
2023/11/22 12:31:51;;;;;;;;;;;;;;;8.45;100.00;100743.75;6219199;23;19908;-85
2023/11/22 12:34:17;;;;;;;;;;;;;;;8.46;100.00;100745.50;6246697;23;19912;-90
2023/11/22 12:36:43;;;;;;;;;;;;;;;8.47;100.00;100744.59;6219439;23;20247;-85
2023/11/22 12:39:12;;;;;;;;;;;;;;;8.51;100.00;100753.34;6246061;23;19915;-86
2023/11/22 12:41:41;;;;;;;;;;;;;;;8.52;100.00;100750.66;6244551;23;20349;-88
2023/11/22 12:44:07;;;;;;;;;;;;;;;8.51;100.00;100748.91;6219576;23;19907;-87
2023/11/22 12:47:10;;;;;;;;;;;;;;;8.56;100.00;100745.31;6219295;23;19937;-87
2023/11/22 12:49:42;;;;;;;;;;;;;;;8.60;100.00;100739.06;6245370;23;20324;-89
2023/11/22 12:52:09;;;;;;;;;;;;;;;8.59;100.00;100734.69;6245961;23;19912;-87
2023/11/22 12:54:35;;;;;;;;;;;;;;;8.60;100.00;100725.84;6245744;23;20235;-86
2023/11/22 12:57:02;;;;;;;;;;;;;;;8.62;100.00;100735.50;6218359;22;19927;-87
2023/11/22 12:59:27;;;;;;;;;;;;;;;8.66;100.00;100749.50;6276507;22;19964;-85
2023/11/22 13:01:54;;;;;;;;;;;;;;;8.65;100.00;100747.78;6276389;22;20374;-85
2023/11/22 13:04:19;;;;;;;;;;;;;;;8.66;100.00;100757.44;6249502;22;19911;-86
2023/11/22 13:06:44;;;;;;;;;;;;;;;8.68;100.00;100767.09;6276533;22;19994;-88
2023/11/22 13:09:16;;;;;;;;;;;;;;;8.72;100.00;100773.19;6276374;22;19912;-84
2023/11/22 13:11:45;;;;;;;;;;;;;;;8.72;100.00;100774.03;6274791;22;20115;-81
2023/11/22 13:14:13;;;;;;;;;;;;;;;8.75;100.00;100781.06;6276401;22;19911;-86
2023/11/22 13:16:39;;;;;;;;;;;;;;;8.78;100.00;100777.50;6276287;22;19988;-85
2023/11/22 13:19:04;;;;;;;;;;;;;;;8.78;100.00;100773.06;6276588;22;19915;-86
2023/11/22 13:21:31;;;;;;;;;;;;;;;8.78;100.00;100762.50;6276326;22;19990;-84
2023/11/22 13:23:57;;;;;;;;;;;;;;;8.80;100.00;100765.09;6275953;22;19911;-84
2023/11/22 13:26:22;;;;;;;;;;;;;;;8.81;100.00;100767.72;6274678;22;19951;-85
2023/11/22 13:28:47;;;;;;;;;;;;;;;8.82;100.00;100766.84;6276170;22;19911;-85
2023/11/22 13:31:14;;;;;;;;;;;;;;;8.83;100.00;100760.63;6276241;22;19947;-84
2023/11/22 13:33:43;;;;;;;;;;;;;;;8.85;100.00;100758.81;6276136;22;19934;-87
2023/11/22 13:36:08;;;;;;;;;;;;;;;8.85;100.00;100740.31;6276197;22;19998;-86
2023/11/22 13:38:34;;;;;;;;;;;;;;;7.69;100.00;100717.78;6275829;22;19947;-86
2023/11/22 13:41:17;;;;;;;;;;;;;;;6.93;100.00;100723.25;6247316;22;19911;-88
2023/11/22 13:43:42;;;;;;;;;;;;;;;6.51;100.00;100720.25;6276444;22;19915;-83
2023/11/22 13:46:10;;;;;;;;;;;;;;;6.26;100.00;100719.66;6276013;22;19994;-85
2023/11/22 13:48:39;;;;;;;;;;;;;;;6.12;100.00;100717.16;6275900;22;19915;-87
2023/11/22 13:51:06;;;;;;;;;;;;;;;6.03;100.00;100718.13;6271828;22;19919;-88
2023/11/22 13:53:36;;;;;;;;;;;;;;;5.88;100.00;100729.59;6275923;22;19915;-87
2023/11/22 13:56:08;;;;;;;;;;;;;;;5.81;100.00;100723.53;6247593;22;19912;-88
2023/11/22 13:58:33;;;;;;;;;;;;;;;5.71;100.00;100716.63;6248746;22;19916;-87
2023/11/22 14:00:59;;;;;;;;;;;;;;;5.61;100.00;100715.78;6248583;22;19915;-84
2023/11/22 14:03:24;;;;;;;;;;;;;;;5.58;100.00;100725.47;6276182;22;20300;-85
2023/11/22 14:05:49;;;;;;;;;;;;;;;5.44;100.00;100722.91;6275538;22;20278;-86
2023/11/22 14:08:15;;;;;;;;;;;;;;;5.33;100.00;100716.88;6275848;22;19915;-86
2023/11/22 14:10:45;;;;;;;;;;;;;;;5.26;100.00;100719.56;6275678;22;20319;-87
2023/11/22 14:13:11;;;;;;;;;;;;;;;5.23;100.00;100734.44;6274083;22;19934;-87
2023/11/22 14:15:37;;;;;;;;;;;;;;;5.27;100.00;100746.72;6249044;22;20274;-85
2023/11/22 14:18:11;;;;;;;;;;;;;;;5.23;100.00;100739.72;6275557;22;19915;-87
2023/11/22 14:20:40;;;;;;;;;;;;;;;5.19;100.00;100741.50;6248006;22;20327;-90
2023/11/22 14:23:07;;;;;;;;;;;;;;;5.08;100.00;100753.81;6273373;22;20723;-86
2023/11/22 14:25:32;;;;;;;;;;;;;;;5.19;100.00;100757.25;6273493;22;19965;-88
2023/11/22 14:28:08;;;;;;;;;;;;;;;5.11;100.00;100756.44;6246847;22;19986;-91
2023/11/22 14:30:36;;;;;;;;;;;;;;;5.04;100.00;100759.94;6243431;22;19916;-86
2023/11/22 14:33:06;;;;;;;;;;;;;;;4.96;100.00;100756.47;6274874;22;20002;-88
2023/11/22 14:35:31;;;;;;;;;;;;;;;4.86;100.00;100751.25;6248509;22;19996;-87
2023/11/22 14:37:58;;;;;;;;;;;;;;;4.87;100.00;100745.13;6248517;22;19915;-89
2023/11/22 14:40:24;;;;;;;;;;;;;;;5.55;100.00;100733.38;6275687;22;19986;-90
2023/11/22 14:42:51;;;;;;;;;;;;;;;6.08;100.00;100741.72;6273932;22;19953;-88
2023/11/22 14:45:19;;;;;;;;;;;;;;;6.38;100.00;100737.06;6248181;22;19994;-88
2023/11/22 14:47:47;;;;;;;;;;;;;;;6.67;100.00;100740.25;6248913;22;19912;-88
2023/11/22 14:50:15;;;;;;;;;;;;;;;6.87;100.00;100744.41;6248659;22;19965;-86
2023/11/22 14:52:41;;;;;;;;;;;;;;;7.02;100.00;100744.22;6275601;22;19918;-84
2023/11/22 14:55:06;;;;;;;;;;;;;;;7.15;100.00;100741.41;6248778;22;19916;-86
2023/11/22 14:57:32;;;;;;;;;;;;;;;7.27;100.00;100743.88;6273631;22;20281;-86
2023/11/22 14:59:57;;;;;;;;;;;;;;;7.37;100.00;100745.50;6275724;22;19957;-84
2023/11/22 15:02:22;;;;;;;;;;;;;;;7.48;100.00;100753.25;6248628;22;19934;-84
2023/11/22 15:04:48;;;;;;;;;;;;;;;7.58;100.00;100744.31;6275477;22;20009;-86
2023/11/22 15:07:14;;;;;;;;;;;;;;;7.61;100.00;100738.09;6268148;22;19956;-83
2023/11/22 15:09:40;;;;;;;;;;;;;;;7.70;100.00;100747.66;6248695;22;19930;-83
2023/11/22 15:12:05;;;;;;;;;;;;;;;7.76;100.00;100753.69;6273719;22;19911;-83
2023/11/22 15:14:32;;;;;;;;;;;;;;;7.81;100.00;100761.53;6277109;22;20315;-84
2023/11/22 15:16:57;;;;;;;;;;;;;;;7.86;100.00;100770.25;6250250;22;19911;-84
2023/11/22 15:19:27;;;;;;;;;;;;;;;7.92;100.00;100785.13;6277429;22;19911;-85
2023/11/22 15:21:52;;;;;;;;;;;;;;;7.95;100.00;100793.00;6277300;22;19946;-87
2023/11/22 15:24:18;;;;;;;;;;;;;;;7.98;100.00;100785.91;6277406;22;19919;-86
2023/11/22 15:26:43;;;;;;;;;;;;;;;8.05;100.00;100788.44;6248404;22;19911;-87
2023/11/22 15:29:08;;;;;;;;;;;;;;;8.07;100.00;100795.41;6250193;22;19918;-84
2023/11/22 15:31:34;;;;;;;;;;;;;;;8.12;100.00;100798.00;6277282;22;19915;-84
2023/11/22 15:33:59;;;;;;;;;;;;;;;8.14;100.00;100806.78;6250448;22;19911;-84
2023/11/22 15:36:26;;;;;;;;;;;;;;;8.16;100.00;100810.25;6277194;22;19915;-84
2023/11/22 15:38:51;;;;;;;;;;;;;;;8.21;100.00;100818.09;6250158;22;20216;-83
2023/11/22 15:41:17;;;;;;;;;;;;;;;8.23;100.00;100813.66;6248569;22;19922;-85
2023/11/22 15:43:42;;;;;;;;;;;;;;;8.27;100.00;100813.59;6277123;22;20024;-85
2023/11/22 15:46:09;;;;;;;;;;;;;;;8.30;100.00;100825.88;6276949;22;19944;-85
2023/11/22 15:48:35;;;;;;;;;;;;;;;8.34;100.00;100825.78;6250359;22;19947;-85
2023/11/22 15:51:00;;;;;;;;;;;;;;;8.36;100.00;100836.34;6277041;22;19912;-85
2023/11/22 15:53:26;;;;;;;;;;;;;;;8.37;100.00;100836.28;6277093;22;19917;-87
2023/11/22 15:55:51;;;;;;;;;;;;;;;8.42;100.00;100837.97;6277123;22;20269;-82
2023/11/22 15:58:16;;;;;;;;;;;;;;;8.43;100.00;100843.28;6274974;22;19919;-85
2023/11/22 16:00:44;;;;;;;;;;;;;;;8.45;100.00;100849.38;6250262;22;19915;-88
2023/11/22 16:03:17;;;;;;;;;;;;;;;8.46;100.00;100850.28;6276918;22;19911;-86
2023/11/22 16:05:42;;;;;;;;;;;;;;;8.48;100.00;100848.47;6276790;22;19953;-83
2023/11/22 16:08:08;;;;;;;;;;;;;;;8.50;100.00;100852.84;6276702;22;19911;-86
2023/11/22 16:10:33;;;;;;;;;;;;;;;8.54;100.00;100849.25;6249704;22;19965;-86
2023/11/22 16:12:59;;;;;;;;;;;;;;;8.56;100.00;100851.00;6274941;22;20038;-87
2023/11/22 16:15:24;;;;;;;;;;;;;;;8.56;100.00;100837.78;6249728;22;19915;-87
2023/11/22 16:17:50;;;;;;;;;;;;;;;8.56;100.00;100836.00;6276693;22;20290;-87
2023/11/22 16:20:15;;;;;;;;;;;;;;;8.60;100.00;100842.09;6249569;22;19916;-86
2023/11/22 16:22:44;;;;;;;;;;;;;;;8.63;100.00;100839.41;6250011;22;20311;-85
2023/11/22 16:25:10;;;;;;;;;;;;;;;8.63;100.00;100844.69;6249360;22;19911;-86
2023/11/22 16:27:36;;;;;;;;;;;;;;;8.65;100.00;100842.91;6274817;22;20220;-86
2023/11/22 16:30:03;;;;;;;;;;;;;;;8.65;100.00;100841.13;6273965;22;20371;-87
2023/11/22 16:32:28;;;;;;;;;;;;;;;8.67;100.00;100833.16;6273590;22;19915;-85
2023/11/22 16:34:53;;;;;;;;;;;;;;;8.69;100.00;100826.09;6248741;22;20393;-89
2023/11/22 16:37:24;;;;;;;;;;;;;;;8.71;100.00;100822.53;6248185;22;20290;-88
2023/11/22 16:39:49;;;;;;;;;;;;;;;8.73;100.00;100822.50;6248949;22;19922;-86
2023/11/22 16:42:18;;;;;;;;;;;;;;;8.73;100.00;100825.13;6240029;22;20002;-86
2023/11/22 16:44:43;;;;;;;;;;;;;;;8.74;100.00;100826.84;6214726;23;20328;-86
2023/11/22 16:47:11;;;;;;;;;;;;;;;8.75;100.00;100830.41;6188194;23;19974;-86
2023/11/22 16:49:42;;;;;;;;;;;;;;;8.75;100.00;100833.91;6188928;23;19912;-86
2023/11/22 16:52:08;;;;;;;;;;;;;;;8.79;100.00;100842.63;6186357;23;20376;-85
2023/11/22 16:54:36;;;;;;;;;;;;;;;8.79;100.00;100843.53;6187778;23;19916;-87
2023/11/22 16:57:01;;;;;;;;;;;;;;;8.80;100.00;100845.25;6213385;23;19915;-86
2023/11/22 16:59:27;;;;;;;;;;;;;;;8.83;100.00;100849.63;6215509;23;20323;-85
2023/11/22 17:01:52;;;;;;;;;;;;;;;8.82;100.00;100846.13;6215442;23;20054;-86
2023/11/22 17:04:17;;;;;;;;;;;;;;;8.86;100.00;100850.41;6215421;23;20347;-85
2023/11/22 17:06:42;;;;;;;;;;;;;;;8.87;100.00;100852.19;6214261;23;20235;-85
2023/11/22 17:09:08;;;;;;;;;;;;;;;8.89;100.00;100855.66;6214613;23;19916;-83
2023/11/22 17:11:33;;;;;;;;;;;;;;;8.88;100.00;100853.91;6213894;23;19916;-83
2023/11/22 17:13:58;;;;;;;;;;;;;;;8.91;100.00;100845.91;6214345;23;19951;-86
2023/11/22 17:16:26;;;;;;;;;;;;;;;8.90;100.00;100838.91;6215401;23;19912;-89
2023/11/22 17:18:51;;;;;;;;;;;;;;;8.93;100.00;100843.25;6188157;23;19954;-85
2023/11/22 17:21:17;;;;;;;;;;;;;;;8.95;100.00;100843.22;6215316;23;19912;-83
2023/11/22 17:23:42;;;;;;;;;;;;;;;8.97;100.00;100852.00;6215327;23;19966;-83
2023/11/22 17:26:07;;;;;;;;;;;;;;;8.35;100.00;100875.06;6213572;23;19919;-85
2023/11/22 17:28:33;;;;;;;;;;;;;;;7.27;100.00;100878.34;6188550;23;20328;-84
2023/11/22 17:30:59;;;;;;;;;;;;;;;6.76;100.00;100870.13;6215305;23;20320;-83
2023/11/22 17:33:26;;;;;;;;;;;;;;;6.48;100.00;100883.56;6215216;23;20328;-87
2023/11/22 17:35:51;;;;;;;;;;;;;;;6.26;100.00;100883.72;6214498;23;20268;-86
2023/11/22 17:38:16;;;;;;;;;;;;;;;6.17;100.00;100875.88;6214674;23;19923;-86
2023/11/22 17:40:42;;;;;;;;;;;;;;;5.94;100.00;100868.13;6215132;23;20315;-88
2023/11/22 17:43:07;;;;;;;;;;;;;;;5.92;100.00;100876.03;6213479;23;19962;-84
2023/11/22 17:45:33;;;;;;;;;;;;;;;5.83;100.00;100876.06;6215005;23;19916;-86
2023/11/22 17:47:58;;;;;;;;;;;;;;;5.82;100.00;100866.44;6215463;23;20034;-85
2023/11/22 17:50:24;;;;;;;;;;;;;;;5.67;100.00;100880.53;6215211;23;19955;-85
2023/11/22 17:52:49;;;;;;;;;;;;;;;5.59;100.00;100891.09;6215109;23;19912;-87
2023/11/22 17:55:14;;;;;;;;;;;;;;;5.53;100.00;100904.28;6214425;23;19923;-87
2023/11/22 17:57:42;;;;;;;;;;;;;;;5.43;100.00;100900.81;6186056;23;19943;-84
2023/11/22 18:00:09;;;;;;;;;;;;;;;5.35;100.00;100907.84;6213836;23;19960;-87
2023/11/22 18:02:34;;;;;;;;;;;;;;;5.30;100.00;100908.72;6214579;23;19912;-85
2023/11/22 18:04:59;;;;;;;;;;;;;;;5.22;100.00;100901.75;6214195;23;19946;-84
2023/11/22 18:07:25;;;;;;;;;;;;;;;5.24;100.00;100905.25;6214366;23;19942;-87
2023/11/22 18:09:50;;;;;;;;;;;;;;;5.12;100.00;100905.28;6214249;23;20483;-86
2023/11/22 18:12:16;;;;;;;;;;;;;;;5.13;100.00;100906.19;6213355;23;19924;-85
2023/11/22 18:14:41;;;;;;;;;;;;;;;5.09;100.00;100918.47;6187914;23;19912;-86
2023/11/22 18:17:07;;;;;;;;;;;;;;;4.99;100.00;100920.19;6187502;23;19916;-86
2023/11/22 18:19:32;;;;;;;;;;;;;;;4.98;100.00;100913.22;6214487;23;19912;-84
2023/11/22 18:21:58;;;;;;;;;;;;;;;4.93;100.00;100924.59;6214847;23;19912;-84
2023/11/22 18:24:26;;;;;;;;;;;;;;;4.95;100.00;100933.38;6187756;23;20651;-86
2023/11/22 18:26:52;;;;;;;;;;;;;;;4.93;100.00;100924.59;6186633;23;19919;-83
2023/11/22 18:29:21;;;;;;;;;;;;;;;5.01;100.00;100928.06;6213129;23;19916;-86
2023/11/22 18:31:47;;;;;;;;;;;;;;;5.80;100.00;100937.44;6214290;23;19915;-85
2023/11/22 18:34:14;;;;;;;;;;;;;;;6.22;100.00;100945.13;6214057;23;19915;-85
2023/11/22 18:36:42;;;;;;;;;;;;;;;6.50;100.00;100937.94;6214812;23;19908;-85
2023/11/22 18:39:07;;;;;;;;;;;;;;;6.75;100.00;100934.22;6188348;23;19919;-88
2023/11/22 18:41:33;;;;;;;;;;;;;;;6.96;100.00;100939.31;6210720;23;19920;-83
2023/11/22 18:44:01;;;;;;;;;;;;;;;7.11;100.00;100934.75;6214742;23;19927;-87
2023/11/22 18:46:26;;;;;;;;;;;;;;;7.24;100.00;100939.00;6187544;23;19923;-87
2023/11/22 18:48:51;;;;;;;;;;;;;;;7.32;100.00;100937.16;6216830;23;19916;-88
2023/11/22 18:51:17;;;;;;;;;;;;;;;7.44;100.00;100934.38;6215665;23;19916;-87